createdAt,value
2023-04-25T00:01:42.605Z,1.77
2023-04-25T00:04:09.740Z,1.98
2023-04-25T00:06:37.968Z,2.42
2023-04-25T00:09:08.601Z,2.92
2023-04-25T00:11:35.787Z,2.50
2023-04-25T00:14:03.473Z,2.67
2023-04-25T00:16:34.465Z,2.58
2023-04-25T00:19:03.343Z,2.80
2023-04-25T00:21:32.560Z,2.58
2023-04-25T00:24:00.850Z,3.05
2023-04-25T00:26:28.690Z,2.65
2023-04-25T00:28:55.734Z,2.53
2023-04-25T00:31:22.773Z,3.22
2023-04-25T00:33:49.886Z,3.53
2023-04-25T00:36:18.105Z,3.13
2023-04-25T00:38:45.058Z,2.95
2023-04-25T00:41:12.772Z,2.13
2023-04-25T00:43:41.706Z,2.53
2023-04-25T00:46:08.715Z,3.20
2023-04-25T00:48:35.856Z,2.20
2023-04-25T00:51:03.080Z,2.92
2023-04-25T00:53:32.996Z,2.20
2023-04-25T00:56:00.297Z,2.13
2023-04-25T00:58:27.309Z,3.30
2023-04-25T01:00:54.328Z,2.17
2023-04-25T01:03:21.898Z,3.55
2023-04-25T01:05:49.556Z,3.70
2023-04-25T01:08:16.753Z,3.00
2023-04-25T01:10:43.784Z,2.72
2023-04-25T01:13:10.840Z,4.22
2023-04-25T01:15:37.945Z,4.18
2023-04-25T01:18:07.491Z,3.55
2023-04-25T01:20:35.363Z,3.17
2023-04-25T01:23:03.958Z,5.30
2023-04-25T01:25:34.806Z,3.45
2023-04-25T01:28:02.127Z,3.50
2023-04-25T01:30:30.454Z,3.35
2023-04-25T01:32:58.775Z,2.75
2023-04-25T01:35:26.329Z,2.90
2023-04-25T01:37:56.261Z,3.45
2023-04-25T01:40:23.968Z,4.20
2023-04-25T01:42:52.421Z,4.05
2023-04-25T01:45:20.145Z,4.05
2023-04-25T01:47:51.359Z,3.75
2023-04-25T01:50:20.300Z,4.47
2023-04-25T01:52:48.641Z,2.88
2023-04-25T01:55:15.834Z,3.53
2023-04-25T01:58:01.072Z,3.40
2023-04-25T02:00:45.620Z,4.30
2023-04-25T02:03:12.696Z,4.53
2023-04-25T02:05:41.477Z,3.75
2023-04-25T02:08:11.385Z,3.35
2023-04-25T02:10:38.649Z,3.88
2023-04-25T02:13:18.017Z,3.45
2023-04-25T02:16:05.583Z,3.20
2023-04-25T02:18:33.025Z,3.53
2023-04-25T02:21:03.891Z,3.55
2023-04-25T02:23:31.151Z,3.33
2023-04-25T02:26:00.513Z,3.05
2023-04-25T02:28:27.765Z,4.88
2023-04-25T02:30:54.806Z,3.35
2023-04-25T02:33:22.075Z,3.08
2023-04-25T02:35:49.201Z,3.47
2023-04-25T02:38:16.254Z,4.18
2023-04-25T02:40:43.192Z,5.63
2023-04-25T02:43:10.131Z,5.55
2023-04-25T02:45:37.172Z,5.28
2023-04-25T02:48:04.958Z,3.30
2023-04-25T02:50:32.991Z,4.10
2023-04-25T02:53:00.402Z,3.97
2023-04-25T02:55:33.677Z,2.92
2023-04-25T02:58:02.699Z,4.88
2023-04-25T03:00:43.091Z,3.90
2023-04-25T03:03:10.544Z,4.75
2023-04-25T03:05:37.734Z,2.90
2023-04-25T03:08:05.500Z,3.40
2023-04-25T03:10:34.017Z,6.93
2023-04-25T03:13:04.980Z,4.63
2023-04-25T03:15:32.269Z,2.90
2023-04-25T03:17:59.316Z,4.47
2023-04-25T03:20:26.289Z,4.13
2023-04-25T03:22:53.318Z,3.97
2023-04-25T03:25:20.333Z,3.40
2023-04-25T03:27:47.774Z,2.90
2023-04-25T03:30:14.956Z,5.25
2023-04-25T03:32:43.786Z,3.60
2023-04-25T03:35:10.889Z,3.80
2023-04-25T03:37:37.884Z,4.47
2023-04-25T03:40:05.703Z,2.70
2023-04-25T03:42:52.628Z,3.33
2023-04-25T03:45:19.589Z,4.05
2023-04-25T03:47:46.940Z,4.20
2023-04-25T03:50:13.954Z,3.78
2023-04-25T03:52:40.920Z,3.47
2023-04-25T03:55:08.530Z,3.90
2023-04-25T03:57:35.458Z,3.25
2023-04-25T04:00:02.834Z,3.95
2023-04-25T04:02:41.882Z,4.93
2023-04-25T04:05:12.918Z,4.85
2023-04-25T04:07:46.124Z,2.92
2023-04-25T04:10:13.816Z,3.53
2023-04-25T04:12:41.757Z,3.10
2023-04-25T04:15:09.342Z,3.10
2023-04-25T04:17:36.830Z,3.38
2023-04-25T04:20:04.711Z,3.97
2023-04-25T04:22:33.058Z,3.60
2023-04-25T04:25:06.921Z,3.03
2023-04-25T04:27:56.860Z,3.03
2023-04-25T04:30:30.520Z,3.17
2023-04-25T04:32:59.729Z,4.20
2023-04-25T04:35:26.792Z,3.33
2023-04-25T04:37:55.616Z,4.50
2023-04-25T04:40:26.540Z,3.55
2023-04-25T04:43:06.852Z,2.85
2023-04-25T04:45:44.148Z,2.92
2023-04-25T04:48:33.643Z,2.40
2023-04-25T04:51:19.334Z,3.38
2023-04-25T04:53:59.533Z,2.53
2023-04-25T04:56:45.108Z,2.42
2023-04-25T04:59:22.982Z,2.17
2023-04-25T05:02:07.214Z,2.30
2023-04-25T05:04:53.379Z,3.00
2023-04-25T05:07:27.936Z,1.73
2023-04-25T05:10:10.065Z,1.90
2023-04-25T05:12:58.367Z,3.45
2023-04-25T05:16:00.821Z,1.98
2023-04-25T05:18:49.964Z,2.08
2023-04-25T05:21:36.882Z,2.78
2023-04-25T05:24:10.908Z,2.33
2023-04-25T05:27:04.280Z,1.88
2023-04-25T05:29:50.114Z,2.70
2023-04-25T05:32:29.828Z,1.77
2023-04-25T05:34:57.417Z,2.03
2023-04-25T05:37:33.962Z,3.42
2023-04-25T05:40:11.299Z,1.63
2023-04-25T05:42:57.089Z,1.60
2023-04-25T05:45:44.457Z,3.53
2023-04-25T05:48:32.612Z,1.58
2023-04-25T05:51:10.924Z,1.65
2023-04-25T05:53:47.583Z,1.80
2023-04-25T05:56:16.192Z,1.55
2023-04-25T05:58:43.481Z,2.25
2023-04-25T06:01:13.733Z,2.55
2023-04-25T06:03:44.141Z,1.40
2023-04-25T06:06:12.703Z,1.33
2023-04-25T06:08:42.994Z,1.63
2023-04-25T06:11:12.712Z,1.55
2023-04-25T06:13:39.805Z,3.28
2023-04-25T06:16:08.520Z,1.50
2023-04-25T06:18:35.781Z,1.73
2023-04-25T06:21:03.584Z,1.58
2023-04-25T06:23:31.125Z,1.30
2023-04-25T06:26:04.778Z,1.88
2023-04-25T06:28:33.873Z,1.42
2023-04-25T06:31:00.903Z,1.33
2023-04-25T06:33:28.290Z,2.28
2023-04-25T06:35:56.191Z,2.50
2023-04-25T06:38:27.139Z,4.43
2023-04-25T06:40:56.849Z,1.90
2023-04-25T06:43:24.200Z,1.70
2023-04-25T06:45:54.242Z,1.00
2023-04-25T06:48:22.952Z,1.65
2023-04-25T06:50:53.461Z,1.83
2023-04-25T06:53:20.657Z,1.40
2023-04-25T06:55:53.116Z,1.77
2023-04-25T06:58:23.496Z,1.75
2023-04-25T07:01:00.749Z,1.80
2023-04-25T07:03:28.605Z,1.38
2023-04-25T07:06:01.196Z,1.17
2023-04-25T07:08:30.418Z,1.35
2023-04-25T07:10:59.191Z,1.83
2023-04-25T07:13:26.371Z,1.60
2023-04-25T07:15:55.416Z,1.42
2023-04-25T07:18:24.081Z,3.55
2023-04-25T07:20:52.023Z,1.15
2023-04-25T07:23:19.951Z,1.20
2023-04-25T07:25:48.469Z,2.45
2023-04-25T07:28:21.292Z,1.23
2023-04-25T07:30:48.727Z,1.67
2023-04-25T07:33:15.879Z,1.33
2023-04-25T07:35:42.944Z,1.65
2023-04-25T07:38:11.540Z,1.20
2023-04-25T07:40:39.011Z,1.35
2023-04-25T07:43:08.897Z,2.38
2023-04-25T07:45:45.127Z,1.20
2023-04-25T07:48:13.005Z,3.72
2023-04-25T07:50:41.534Z,1.17
2023-04-25T07:53:09.030Z,2.00
2023-04-25T07:55:44.651Z,1.48
2023-04-25T07:58:16.628Z,1.65
2023-04-25T08:00:46.293Z,1.42
2023-04-25T08:03:42.655Z,1.02
2023-04-25T08:06:16.616Z,1.00
2023-04-25T08:08:53.273Z,1.85
2023-04-25T08:11:23.704Z,1.92
2023-04-25T08:13:51.118Z,1.75
2023-04-25T08:16:18.545Z,0.82
2023-04-25T08:18:45.742Z,0.60
2023-04-25T08:21:13.653Z,2.00
2023-04-25T08:23:40.636Z,0.50
2023-04-25T08:26:21.476Z,0.75
2023-04-25T08:28:50.832Z,0.38
2023-04-25T08:31:18.386Z,0.50
2023-04-25T08:33:58.162Z,0.40
2023-04-25T08:36:39.303Z,1.00
2023-04-25T08:39:19.208Z,0.47
2023-04-25T08:42:11.652Z,1.20
2023-04-25T08:44:39.353Z,0.60
2023-04-25T08:47:07.626Z,0.60
2023-04-25T08:52:15.029Z,1.20
2023-04-25T08:54:49.941Z,1.45
2023-04-25T08:57:19.614Z,1.38
2023-04-25T08:59:49.465Z,0.57
2023-04-25T09:02:19.809Z,1.15
2023-04-25T09:04:50.817Z,1.42
2023-04-25T09:07:22.192Z,0.88
2023-04-25T09:09:49.414Z,0.70
2023-04-25T09:12:22.101Z,0.93
2023-04-25T09:15:06.832Z,0.80
2023-04-25T09:17:58.798Z,0.75
2023-04-25T09:20:31.858Z,0.75
2023-04-25T09:23:04.630Z,0.93
2023-04-25T09:25:40.286Z,1.77
2023-04-25T09:28:10.126Z,0.73
2023-04-25T09:30:38.165Z,1.73
2023-04-25T09:33:13.712Z,1.20
2023-04-25T09:35:54.038Z,1.38
2023-04-25T09:38:46.992Z,0.68
2023-04-25T09:41:26.261Z,0.60
2023-04-25T09:44:00.077Z,0.93
2023-04-25T09:46:37.959Z,0.70
2023-04-25T09:49:09.362Z,1.58
2023-04-25T09:51:59.676Z,1.48
2023-04-25T09:54:32.148Z,1.48
2023-04-25T09:57:25.361Z,1.58
2023-04-25T09:59:56.025Z,0.90
2023-04-25T10:02:28.321Z,0.85
2023-04-25T10:05:04.567Z,0.90
2023-04-25T10:07:39.373Z,0.60
2023-04-25T10:10:14.175Z,1.63
2023-04-25T10:12:43.768Z,0.52
2023-04-25T10:15:12.025Z,1.10
2023-04-25T10:17:39.771Z,0.70
2023-04-25T10:20:12.090Z,0.75
2023-04-25T10:22:49.354Z,0.60
2023-04-25T10:25:16.732Z,0.65
2023-04-25T10:27:44.348Z,0.82
2023-04-25T10:30:16.382Z,0.60
2023-04-25T10:32:44.586Z,0.85
2023-04-25T10:35:27.789Z,0.50
2023-04-25T10:38:24.332Z,0.65
2023-04-25T10:41:21.411Z,1.23
2023-04-25T10:43:50.194Z,1.13
2023-04-25T10:46:27.053Z,0.68
2023-04-25T10:48:59.923Z,0.60
2023-04-25T10:51:51.548Z,0.60
2023-04-25T10:54:23.514Z,0.50
2023-04-25T10:56:54.345Z,0.40
2023-04-25T10:59:26.047Z,1.10
2023-04-25T11:01:55.663Z,0.98
2023-04-25T11:04:32.160Z,0.50
2023-04-25T11:07:17.003Z,0.50
2023-04-25T11:09:46.857Z,1.23
2023-04-25T11:12:14.949Z,0.68
2023-04-25T11:14:42.248Z,0.80
2023-04-25T11:17:11.660Z,0.60
2023-04-25T11:19:38.771Z,0.82
2023-04-25T11:22:07.121Z,0.82
2023-04-25T11:24:37.862Z,1.00
2023-04-25T11:27:07.110Z,0.70
2023-04-25T11:29:36.200Z,0.80
2023-04-25T11:32:03.852Z,1.73
2023-04-25T11:34:33.736Z,0.55
2023-04-25T11:37:03.127Z,0.80
2023-04-25T11:39:31.043Z,0.55
2023-04-25T11:41:58.166Z,1.25
2023-04-25T11:44:25.446Z,0.73
2023-04-25T11:46:52.535Z,0.63
2023-04-25T11:49:19.695Z,0.73
2023-04-25T11:51:49.419Z,1.50
2023-04-25T11:54:16.903Z,0.40
2023-04-25T11:56:46.215Z,0.35
2023-04-25T11:59:14.352Z,0.70
2023-04-25T12:01:49.883Z,0.90
2023-04-25T12:04:23.235Z,1.10
2023-04-25T12:06:53.908Z,0.63
2023-04-25T12:09:32.740Z,0.60
2023-04-25T12:12:04.213Z,0.80
2023-04-25T12:14:34.677Z,0.47
2023-04-25T12:17:04.878Z,1.15
2023-04-25T12:19:37.926Z,1.40
2023-04-25T12:22:21.112Z,0.90
2023-04-25T12:24:48.411Z,0.88
2023-04-25T12:27:20.011Z,0.90
2023-04-25T12:29:57.798Z,0.77
2023-04-25T12:32:26.264Z,0.60
2023-04-25T12:34:53.592Z,0.60
2023-04-25T12:37:20.642Z,1.13
2023-04-25T12:39:47.990Z,1.08
2023-04-25T12:42:15.428Z,0.60
2023-04-25T12:44:42.962Z,0.47
2023-04-25T12:47:10.147Z,0.80
2023-04-25T12:49:37.335Z,0.40
2023-04-25T12:52:04.548Z,0.80
2023-04-25T12:54:32.177Z,1.15
2023-04-25T12:56:59.393Z,0.55
2023-04-25T12:59:26.647Z,0.50
2023-04-25T13:01:54.190Z,0.47
2023-04-25T13:04:22.427Z,1.65
2023-04-25T13:06:49.606Z,0.60
2023-04-25T13:09:16.814Z,0.50
2023-04-25T13:11:43.981Z,0.50
2023-04-25T13:14:11.370Z,0.80
2023-04-25T13:16:38.602Z,0.95
2023-04-25T13:19:06.689Z,0.50
2023-04-25T13:21:33.887Z,0.70
2023-04-25T13:24:01.021Z,0.70
2023-04-25T13:26:28.105Z,0.30
2023-04-25T13:28:55.376Z,0.57
2023-04-25T13:31:22.488Z,0.43
2023-04-25T13:33:50.189Z,0.60
2023-04-25T13:36:17.549Z,0.55
2023-04-25T13:38:46.164Z,0.50
2023-04-25T13:41:18.628Z,0.63
2023-04-25T13:43:48.659Z,1.58
2023-04-25T13:46:35.574Z,0.95
2023-04-25T13:49:12.388Z,1.50
2023-04-25T13:51:40.497Z,0.90
2023-04-25T13:54:07.599Z,0.80
2023-04-25T13:56:35.150Z,0.47
2023-04-25T13:59:02.705Z,1.42
2023-04-25T14:01:32.082Z,0.85
2023-04-25T14:03:59.271Z,0.50
2023-04-25T14:06:26.943Z,0.60
2023-04-25T14:08:54.990Z,0.60
2023-04-25T14:11:22.256Z,1.30
2023-04-25T14:13:50.709Z,0.77
2023-04-25T14:16:18.338Z,0.50
2023-04-25T14:18:45.432Z,0.90
2023-04-25T14:21:12.709Z,0.57
2023-04-25T14:23:39.952Z,0.82
2023-04-25T14:26:07.060Z,1.02
2023-04-25T14:28:34.167Z,0.82
2023-04-25T14:31:01.837Z,1.20
2023-04-25T14:33:28.884Z,1.75
2023-04-25T14:35:56.110Z,1.00
2023-04-25T14:38:24.493Z,0.70
2023-04-25T14:40:51.975Z,1.02
2023-04-25T14:43:19.271Z,0.98
2023-04-25T14:45:46.324Z,1.17
2023-04-25T14:48:13.880Z,1.40
2023-04-25T14:50:41.114Z,0.93
2023-04-25T14:53:08.191Z,0.60
2023-04-25T14:55:36.140Z,0.68
2023-04-25T14:58:03.268Z,1.00
2023-04-25T15:00:32.626Z,0.70
2023-04-25T15:03:00.314Z,0.70
2023-04-25T15:05:28.332Z,1.20
2023-04-25T15:07:55.589Z,0.90
2023-04-25T15:10:23.763Z,0.90
2023-04-25T15:12:51.517Z,1.23
2023-04-25T15:15:25.845Z,1.05
2023-04-25T15:17:59.310Z,0.80
2023-04-25T15:20:27.907Z,0.90
2023-04-25T15:22:55.040Z,1.35
2023-04-25T15:25:22.100Z,2.35
2023-04-25T15:27:49.595Z,1.30
2023-04-25T15:30:18.311Z,0.70
2023-04-25T15:32:47.150Z,0.77
2023-04-25T15:35:15.943Z,1.38
2023-04-25T15:37:43.583Z,1.45
2023-04-25T15:40:15.383Z,1.23
2023-04-25T15:42:48.037Z,0.85
2023-04-25T15:45:17.912Z,0.80
2023-04-25T15:47:45.740Z,0.50
2023-04-25T15:50:14.860Z,1.27
2023-04-25T15:52:42.161Z,0.52
2023-04-25T15:55:10.012Z,0.90
2023-04-25T15:57:37.620Z,0.60
2023-04-25T16:00:13.368Z,0.50
2023-04-25T16:05:09.639Z,1.25
2023-04-25T16:07:37.795Z,0.80
2023-04-25T16:10:06.221Z,1.08
2023-04-25T16:12:33.294Z,0.57
2023-04-25T16:15:00.389Z,1.55
2023-04-25T16:17:30.864Z,0.68
2023-04-25T16:19:59.249Z,1.17
2023-04-25T16:22:29.154Z,0.80
2023-04-25T16:24:56.311Z,0.88
2023-04-25T16:27:23.626Z,0.85
2023-04-25T16:29:51.664Z,0.70
2023-04-25T16:32:18.771Z,0.80
2023-04-25T16:34:46.070Z,1.13
2023-04-25T16:37:13.581Z,1.98
2023-04-25T16:39:40.570Z,0.70
2023-04-25T16:42:07.668Z,0.70
2023-04-25T16:44:35.422Z,1.55
2023-04-25T16:47:02.745Z,0.70
2023-04-25T16:49:29.972Z,0.80
2023-04-25T16:51:57.158Z,0.55
2023-04-25T16:54:25.674Z,0.70
2023-04-25T16:56:53.025Z,0.73
2023-04-25T16:59:20.777Z,0.80
2023-04-25T17:01:47.863Z,0.80
2023-04-25T17:04:15.074Z,1.10
2023-04-25T17:06:42.558Z,1.08
2023-04-25T17:09:10.550Z,0.70
2023-04-25T17:11:37.596Z,0.70
2023-04-25T17:14:05.070Z,1.58
2023-04-25T17:16:37.475Z,1.20
2023-04-25T17:19:06.866Z,0.63
2023-04-25T17:21:34.229Z,0.70
2023-04-25T17:24:05.971Z,1.15
2023-04-25T17:26:33.043Z,0.60
2023-04-25T17:29:00.828Z,1.00
2023-04-25T17:31:28.227Z,1.38
2023-04-25T17:33:55.474Z,0.85
2023-04-25T17:36:22.957Z,1.05
2023-04-25T17:38:50.308Z,0.98
2023-04-25T17:41:17.627Z,0.73
2023-04-25T17:43:44.637Z,0.63
2023-04-25T17:46:11.653Z,0.57
2023-04-25T17:48:39.125Z,1.25
2023-04-25T17:51:07.501Z,0.75
2023-04-25T17:53:36.599Z,1.38
2023-04-25T17:56:05.293Z,0.90
2023-04-25T17:58:34.631Z,0.93
2023-04-25T18:01:04.156Z,1.15
2023-04-25T18:03:31.823Z,1.10
2023-04-25T18:05:59.358Z,1.02
2023-04-25T18:08:26.530Z,0.65
2023-04-25T18:10:53.635Z,0.90
2023-04-25T18:13:20.700Z,0.88
2023-04-25T18:15:47.822Z,1.00
2023-04-25T18:18:19.992Z,1.10
2023-04-25T18:20:47.493Z,1.38
2023-04-25T18:23:14.779Z,0.90
2023-04-25T18:25:42.037Z,0.70
2023-04-25T18:28:09.222Z,0.77
2023-04-25T18:30:37.939Z,1.70
2023-04-25T18:33:05.572Z,1.27
2023-04-25T18:35:32.704Z,1.25
2023-04-25T18:37:59.783Z,0.90
2023-04-25T18:40:26.968Z,1.30
2023-04-25T18:42:54.077Z,1.30
2023-04-25T18:45:21.430Z,0.90
2023-04-25T18:47:48.486Z,0.98
2023-04-25T18:50:18.900Z,0.88
2023-04-25T18:52:46.150Z,2.13
2023-04-25T18:55:13.279Z,1.63
2023-04-25T18:57:40.709Z,1.10
2023-04-25T19:00:09.300Z,0.82
2023-04-25T19:02:39.287Z,1.63
2023-04-25T19:05:07.745Z,1.80
2023-04-25T19:07:34.991Z,1.40
2023-04-25T19:10:06.003Z,1.30
2023-04-25T19:12:33.643Z,1.55
2023-04-25T19:15:00.666Z,1.70
2023-04-25T19:17:29.726Z,2.00
2023-04-25T19:19:57.456Z,1.10
2023-04-25T19:22:24.531Z,1.70
2023-04-25T19:25:02.930Z,2.40
2023-04-25T19:27:36.912Z,3.43
2023-04-25T19:30:08.129Z,3.05
2023-04-25T19:32:36.000Z,1.30
2023-04-25T19:35:05.958Z,1.60
2023-04-25T19:37:33.039Z,1.35
2023-04-25T19:40:00.387Z,1.88
2023-04-25T19:42:27.548Z,2.00
2023-04-25T19:44:54.995Z,1.70
2023-04-25T19:47:22.053Z,1.42
2023-04-25T19:49:49.165Z,1.85
2023-04-25T19:52:17.280Z,2.15
2023-04-25T19:54:45.647Z,1.50
2023-04-25T19:57:14.027Z,1.88
2023-04-25T19:59:41.648Z,1.25
2023-04-25T20:02:10.855Z,1.67
2023-04-25T20:04:38.777Z,1.40
2023-04-25T20:07:05.977Z,1.30
2023-04-25T20:09:33.331Z,1.77
2023-04-25T20:12:00.681Z,1.35
2023-04-25T20:14:27.879Z,1.55
2023-04-25T20:16:55.204Z,1.83
2023-04-25T20:19:23.163Z,1.40
2023-04-25T20:21:50.507Z,1.65
2023-04-25T20:24:18.125Z,2.22
2023-04-25T20:26:45.531Z,1.50
2023-04-25T20:29:12.953Z,1.63
2023-04-25T20:31:40.319Z,1.27
2023-04-25T20:34:07.566Z,1.50
2023-04-25T20:36:35.300Z,2.03
2023-04-25T20:39:02.849Z,2.45
2023-04-25T20:41:31.609Z,1.98
2023-04-25T20:43:59.453Z,1.98
2023-04-25T20:46:27.585Z,1.50
2023-04-25T20:48:54.971Z,1.63
2023-04-25T20:51:23.125Z,1.65
2023-04-25T20:53:50.403Z,1.83
2023-04-25T20:56:17.580Z,1.13
2023-04-25T20:58:44.831Z,1.80
2023-04-25T21:01:12.716Z,1.25
2023-04-25T21:03:40.403Z,1.30
2023-04-25T21:06:08.873Z,1.67
2023-04-25T21:08:36.381Z,1.60
2023-04-25T21:11:04.118Z,1.55
2023-04-25T21:13:32.000Z,1.30
2023-04-25T21:15:59.829Z,1.50
2023-04-25T21:18:27.848Z,2.20
2023-04-25T21:20:55.140Z,1.70
2023-04-25T21:23:22.395Z,1.00
2023-04-25T21:25:51.724Z,2.22
2023-04-25T21:28:18.951Z,2.88
2023-04-25T21:30:46.667Z,1.30
2023-04-25T21:33:14.636Z,1.20
2023-04-25T21:35:42.264Z,1.60
2023-04-25T21:38:09.601Z,1.58
2023-04-25T21:40:38.467Z,1.33
2023-04-25T21:43:06.787Z,1.58
2023-04-25T21:45:38.370Z,1.45
2023-04-25T21:48:12.004Z,1.98
2023-04-25T21:50:39.692Z,1.60
2023-04-25T21:53:07.259Z,1.35
2023-04-25T21:55:34.920Z,1.40
2023-04-25T21:58:02.077Z,1.42
2023-04-25T22:00:31.591Z,1.40
2023-04-25T22:03:00.154Z,1.88
2023-04-25T22:05:28.226Z,1.88
2023-04-25T22:07:57.246Z,1.65
2023-04-25T22:10:25.383Z,1.73
2023-04-25T22:12:53.222Z,1.98
2023-04-25T22:15:23.904Z,1.95
2023-04-25T22:17:52.481Z,2.28
2023-04-25T22:20:22.703Z,3.15
2023-04-25T22:22:50.559Z,1.63
2023-04-25T22:25:17.968Z,2.03
2023-04-25T22:27:45.305Z,1.83
2023-04-25T22:30:13.431Z,1.95
2023-04-25T22:32:41.800Z,1.80
2023-04-25T22:35:10.618Z,1.90
2023-04-25T22:37:38.092Z,2.78
2023-04-25T22:40:09.405Z,2.15
2023-04-25T22:42:44.129Z,1.77
2023-04-25T22:45:12.352Z,2.35
2023-04-25T22:47:40.402Z,2.17
2023-04-25T22:50:13.421Z,1.90
2023-04-25T22:52:42.707Z,1.67
2023-04-25T22:55:11.088Z,1.45
2023-04-25T22:57:38.998Z,1.92
2023-04-25T23:00:16.656Z,1.92
2023-04-25T23:02:46.320Z,2.40
2023-04-25T23:05:15.605Z,3.03
2023-04-25T23:07:44.761Z,2.03
2023-04-25T23:10:15.380Z,1.58
2023-04-25T23:12:42.847Z,1.88
2023-04-25T23:15:10.776Z,2.75
2023-04-25T23:17:38.186Z,2.08
2023-04-25T23:20:07.717Z,3.53
2023-04-25T23:22:35.185Z,2.70
2023-04-25T23:25:02.745Z,2.70
2023-04-25T23:27:30.149Z,2.30
2023-04-25T23:29:58.038Z,3.03
2023-04-25T23:32:26.450Z,3.13
2023-04-25T23:34:53.859Z,2.83
2023-04-25T23:37:24.114Z,2.72
2023-04-25T23:39:51.964Z,3.08
2023-04-25T23:42:20.446Z,2.88
2023-04-25T23:44:47.844Z,2.92
2023-04-25T23:47:17.656Z,3.42
2023-04-25T23:49:45.924Z,3.92
2023-04-25T23:52:13.217Z,3.42
2023-04-25T23:54:40.694Z,3.22
2023-04-25T23:57:07.937Z,3.00
2023-04-25T23:59:35.505Z,3.70
